x

Buoy M01 - Jordan Basin (44037) Wave Buoy

4:04pm - Sun 23rd Nov 2014 All times are EST. -5 hours from GMT.

  • Sig Wave height 6.2ft
  • Peak Period 8s
  • Wind
    11mph, 13mph gusts
  • Sea Temp 51°f
  • Air Temp 50°f
  • Sea Pressure 1019.7mb
  • Buoy M01 - Jordan Basin
  • Buoy M01 - Jordan Basin

More Historic Weather Station data

Upgrade to MSW Pro to gain access to the past 30 days of data for over 8000 Wavebouys and Weather Stations around the globe.

Join Pro

Comparision Forecast

View Surf forecast
   
Sun 11/23 4:04pm 6ft 8s 11 13 mph 1019.7mb 51f 50f
3:04pm 6.5ft 8s 13 16 mph 1019.1mb 51f 50f
2:04pm 6.5ft 8s 13 18 mph 1018.3mb 51f 50f
1:04pm 7.5ft 8s 18 20 mph 1017.6mb 51f 50f
12:04pm  -   -  20 25 mph 1017.8mb - 50f
11:04am 8ft 8s 18 22 mph 1018mb 51f 50f
10:04am 10.5ft 8s 18 22 mph 1018.3mb 51f 49f
9:04am 11ft 8s 20 22 mph 1017.5mb 51f 49f
8:04am 14ft 8s 22 27 mph 1017.3mb 51f 49f
7:04am 13ft 8s  -  mph - 51f -
6:04am 16ft 11s  -  mph - 51f -
3:04am 15.5ft 11s 25 29 mph 1014.2mb 51f 48f
2:04am  -   -  29 43 mph 1014.3mb - 48f
Sat 11/22 8:04pm 11.5ft 8s 34 43 mph 1014.9mb 51f 47f
7:04pm 13ft 8s 31 38 mph 1015.9mb 51f 47f
6:04pm  -   -  29 36 mph 1016.5mb - 46f
4:04pm  -   -  31 38 mph 1017.6mb - 44f
3:04pm  -   -  31 38 mph 1018.7mb - 42f
2:04pm 7ft 6s 34 43 mph 1019.7mb 51f 40f
12:04pm  -   -  27 31 mph 1021.8mb - 38f
11:04am 4.5ft 5s 20 29 mph 1023.8mb 51f 36f
8:04am 5ft 6s 16 20 mph 1026mb 51f 34f
7:04am 6ft 6s 18 25 mph 1025.9mb 51f 33f
5:04am 7ft 6s 22 29 mph 1026.5mb 51f 31f
3:04am 8ft 6s 25 31 mph 1026.1mb 51f 30f
2:04am  -   -  25 34 mph 1025.8mb - 30f
1:04am 8ft 6s 27 34 mph 1025mb 51f 31f
12:04am 7.5ft 6s 22 29 mph 1024.7mb 51f 31f
Fri 11/21 10:04pm 7.5ft 6s 25 31 mph 1023.1mb 51f 33f
9:04pm 9ft 8s 27 36 mph 1022.5mb 51f 33f
8:04pm 10ft 8s 27 31 mph 1021.9mb 51f 33f
7:04pm 9ft 6s 29 38 mph 1021.2mb 51f 34f
6:04pm 11ft 8s 29 34 mph 1020.1mb 51f 34f
5:04pm  -   -  29 38 mph 1018.9mb - 35f
3:04pm 8.5ft 8s 34 45 mph 1015.6mb 51f 35f
2:04pm 7.5ft 6s 29 34 mph 1014.5mb 51f 35f
1:04pm  -   -  27 31 mph 1013.7mb - 34f
12:04pm  -   -  29 34 mph 1013.2mb - 33f
11:04am 8.5ft 8s 29 34 mph 1012.8mb 51f 34f
10:04am  -   -  29 36 mph 1012.6mb - 34f
9:04am 8ft 6s 27 34 mph 1011.9mb - 35f
8:04am 7.5ft 6s 20 27 mph 1011.6mb - 35f
7:04am 7.5ft 8s 22 31 mph 1010.9mb 51f 35f
5:04am  -   -  20 29 mph 1009.5mb - 37f
3:04am 7.5ft 6s 22 29 mph 1009.2mb 51f 38f
1:04am 9ft 6s  -  mph - 52f -
Thu 11/20 11:04pm  -   -  25 31 mph 1008.8mb - 40f
10:04pm 9ft 8s 27 31 mph 1008.5mb 51f 41f
9:04pm  -   -  27 34 mph 1008.5mb - 42f
8:04pm 8ft 8s 27 31 mph 1007.5mb - 44f
7:04pm 7ft 6s 25 29 mph 1006.5mb 51f 46f
11:04am 10ft 8s 25 34 mph 1009.9mb - 45f
10:04am 8.5ft 8s 22 27 mph 1011.1mb 52f 45f
9:04am  -   -  25 29 mph 1011.7mb - 44f
8:04am  -   -  27 34 mph 1012.1mb - 44f
6:04am 10ft 8s 27 34 mph 1013.4mb - 41f
5:04am 10ft 8s 27 34 mph 1013.9mb 52f 42f
4:04am 9.5ft 8s 29 38 mph 1014.7mb - 42f
3:04am 8ft 6s 29 38 mph 1015.6mb - 41f
2:04am  -   -  22 29 mph 1016.4mb - 42f
1:04am  -   -  27 31 mph 1016.9mb - 42f
12:04am  -   -  27 31 mph 1017.2mb - 41f
Wed 11/19 11:04pm 6ft 5s 22 27 mph 1017.8mb 52f 41f